createdAt,value
2023-05-22T00:01:33.246Z,6.90
2023-05-22T00:04:34.906Z,6.80
2023-05-22T00:07:36.945Z,7.03
2023-05-22T00:10:39.124Z,7.20
2023-05-22T00:13:40.945Z,7.30
2023-05-22T00:16:42.655Z,6.90
2023-05-22T00:19:44.324Z,7.67
2023-05-22T00:22:45.998Z,7.07
2023-05-22T00:25:47.729Z,7.40
2023-05-22T00:28:49.368Z,7.40
2023-05-22T00:31:50.982Z,7.10
2023-05-22T00:34:52.697Z,7.37
2023-05-22T00:37:54.461Z,8.20
2023-05-22T00:40:56.230Z,8.27
2023-05-22T00:43:57.922Z,6.90
2023-05-22T00:46:59.591Z,8.03
2023-05-22T00:50:01.553Z,7.77
2023-05-22T00:53:03.248Z,8.10
2023-05-22T00:56:05.175Z,7.40
2023-05-22T00:59:06.910Z,7.50
2023-05-22T01:02:08.894Z,7.70
2023-05-22T01:05:13.166Z,7.30
2023-05-22T01:08:15.213Z,7.63
2023-05-22T01:11:22.279Z,7.20
2023-05-22T01:14:26.853Z,7.37
2023-05-22T01:17:35.009Z,7.70
2023-05-22T01:20:41.011Z,7.30
2023-05-22T01:24:01.790Z,7.53
2023-05-22T01:27:18.683Z,7.53
2023-05-22T01:30:39.298Z,7.60
2023-05-22T01:33:55.204Z,7.80
2023-05-22T01:36:57.544Z,7.57
2023-05-22T01:40:01.151Z,7.70
2023-05-22T01:43:02.928Z,7.07
2023-05-22T01:46:05.860Z,7.43
2023-05-22T01:49:09.130Z,7.37
2023-05-22T01:52:15.283Z,7.30
2023-05-22T01:55:21.226Z,7.40
2023-05-22T01:58:41.743Z,7.33
2023-05-22T02:01:43.903Z,6.60
2023-05-22T02:04:49.050Z,7.30
2023-05-22T02:07:50.917Z,7.30
2023-05-22T02:10:55.161Z,7.30
2023-05-22T02:13:57.503Z,7.50
2023-05-22T02:17:02.198Z,7.13
2023-05-22T02:20:05.094Z,7.10
2023-05-22T02:23:14.536Z,7.70
2023-05-22T02:26:16.193Z,6.87
2023-05-22T02:29:17.867Z,7.80
2023-05-22T02:32:19.541Z,8.07
2023-05-22T02:35:23.146Z,7.20
2023-05-22T02:38:26.802Z,7.80
2023-05-22T02:41:28.562Z,7.30
2023-05-22T02:44:30.425Z,7.47
2023-05-22T02:47:32.175Z,7.97
2023-05-22T02:50:33.871Z,8.53
2023-05-22T02:53:40.146Z,8.53
2023-05-22T02:56:42.638Z,8.90
2023-05-22T02:59:45.759Z,9.13
2023-05-22T03:02:48.472Z,8.93
2023-05-22T03:05:53.802Z,9.10
2023-05-22T03:08:55.829Z,8.30
2023-05-22T03:11:58.659Z,8.23
2023-05-22T03:15:00.958Z,7.47
2023-05-22T03:18:03.161Z,8.40
2023-05-22T03:21:05.037Z,8.77
2023-05-22T03:24:06.906Z,8.07
2023-05-22T03:27:08.945Z,7.50
2023-05-22T03:30:16.705Z,7.53
2023-05-22T03:33:28.055Z,8.00
2023-05-22T03:36:32.443Z,8.60
2023-05-22T03:39:34.243Z,7.63
2023-05-22T03:42:42.724Z,7.60
2023-05-22T03:45:44.530Z,7.17
2023-05-22T03:48:46.953Z,7.23
2023-05-22T03:51:48.625Z,8.10
2023-05-22T03:54:50.947Z,8.20
2023-05-22T03:57:52.638Z,8.63
2023-05-22T04:00:55.042Z,8.33
2023-05-22T04:03:56.862Z,7.67
2023-05-22T04:06:59.355Z,8.23
2023-05-22T04:10:01.425Z,8.10
2023-05-22T04:13:03.095Z,7.50
2023-05-22T04:16:07.064Z,8.03
2023-05-22T04:19:09.728Z,8.03
2023-05-22T04:22:11.925Z,8.20
2023-05-22T04:25:19.395Z,7.97
2023-05-22T04:28:24.607Z,7.17
2023-05-22T04:31:26.612Z,6.80
2023-05-22T04:34:30.369Z,7.30
2023-05-22T04:37:35.978Z,7.13
2023-05-22T04:40:38.470Z,6.53
2023-05-22T04:43:40.651Z,6.50
2023-05-22T04:46:44.683Z,6.83
2023-05-22T04:49:46.490Z,7.23
2023-05-22T04:52:48.974Z,6.67
2023-05-22T04:55:53.168Z,6.63
2023-05-22T04:58:55.937Z,6.57
2023-05-22T05:01:57.731Z,6.13
2023-05-22T05:04:59.618Z,6.77
2023-05-22T05:08:01.994Z,6.53
2023-05-22T05:11:03.866Z,6.47
2023-05-22T05:14:05.864Z,6.23
2023-05-22T05:17:07.615Z,7.57
2023-05-22T05:20:09.518Z,7.03
2023-05-22T05:23:12.516Z,7.50
2023-05-22T05:26:14.543Z,6.97
2023-05-22T05:29:16.291Z,6.87
2023-05-22T05:32:27.003Z,6.87
2023-05-22T05:35:45.247Z,6.10
2023-05-22T05:38:48.178Z,9.70
2023-05-22T05:41:50.100Z,5.97
2023-05-22T05:44:52.525Z,6.07
2023-05-22T05:47:55.155Z,6.53
2023-05-22T05:50:56.993Z,5.50
2023-05-22T05:53:59.126Z,6.43
2023-05-22T05:57:01.457Z,6.73
2023-05-22T06:00:05.725Z,6.60
2023-05-22T06:03:17.900Z,5.40
2023-05-22T06:06:37.042Z,4.80
2023-05-22T06:10:00.670Z,4.70
2023-05-22T06:13:11.451Z,5.90
2023-05-22T06:16:13.717Z,5.82
2023-05-22T06:19:15.729Z,5.00
2023-05-22T06:22:18.028Z,4.40
2023-05-22T06:25:23.830Z,4.72
2023-05-22T06:28:25.787Z,4.70
2023-05-22T06:31:28.221Z,5.50
2023-05-22T06:34:32.782Z,5.03
2023-05-22T06:37:35.886Z,5.93
2023-05-22T06:40:38.315Z,4.70
2023-05-22T06:43:47.830Z,4.40
2023-05-22T06:46:50.277Z,4.25
2023-05-22T06:49:58.811Z,4.53
2023-05-22T06:53:01.518Z,4.47
2023-05-22T06:56:03.366Z,4.82
2023-05-22T06:59:23.033Z,4.43
2023-05-22T07:02:40.235Z,4.47
2023-05-22T07:06:02.404Z,5.05
2023-05-22T07:09:08.728Z,5.13
2023-05-22T07:12:10.579Z,4.80
2023-05-22T07:15:14.482Z,4.93
2023-05-22T07:18:21.920Z,4.47
2023-05-22T07:21:26.505Z,4.80
2023-05-22T07:24:30.392Z,5.67
2023-05-22T07:27:32.076Z,4.57
2023-05-22T07:30:37.623Z,4.63
2023-05-22T07:33:40.402Z,5.00
2023-05-22T07:36:42.493Z,5.03
2023-05-22T07:39:46.597Z,5.37
2023-05-22T07:42:49.257Z,5.40
2023-05-22T07:45:51.411Z,5.43
2023-05-22T07:48:57.930Z,4.80
2023-05-22T07:51:59.654Z,4.77
2023-05-22T07:55:01.993Z,4.40
2023-05-22T07:58:05.294Z,5.20
2023-05-22T08:01:13.035Z,5.18
2023-05-22T08:04:14.858Z,5.18
2023-05-22T08:07:16.787Z,4.55
2023-05-22T08:10:18.926Z,4.50
2023-05-22T08:13:20.616Z,4.70
2023-05-22T08:16:22.622Z,4.82
2023-05-22T08:19:24.721Z,6.13
2023-05-22T08:22:26.569Z,4.90
2023-05-22T08:25:28.322Z,4.75
2023-05-22T08:28:30.144Z,4.55
2023-05-22T08:31:34.284Z,4.85
2023-05-22T08:34:36.174Z,4.30
2023-05-22T08:37:37.961Z,4.18
2023-05-22T08:40:41.928Z,4.57
2023-05-22T08:43:45.007Z,4.00
2023-05-22T08:46:47.379Z,4.57
2023-05-22T08:49:51.730Z,4.60
2023-05-22T08:52:57.280Z,4.20
2023-05-22T08:55:59.703Z,5.97
2023-05-22T08:59:02.013Z,4.38
2023-05-22T09:02:06.651Z,4.38
2023-05-22T09:05:09.431Z,4.05
2023-05-22T09:08:19.677Z,5.03
2023-05-22T09:11:22.794Z,4.55
2023-05-22T09:14:25.538Z,4.90
2023-05-22T09:17:27.425Z,4.50
2023-05-22T09:20:29.277Z,4.28
2023-05-22T09:23:30.974Z,4.10
2023-05-22T09:26:33.733Z,4.00
2023-05-22T09:29:51.890Z,4.75
2023-05-22T09:32:54.840Z,4.57
2023-05-22T09:35:56.561Z,4.60
2023-05-22T09:38:59.972Z,4.57
2023-05-22T09:42:01.902Z,4.00
2023-05-22T09:45:07.267Z,3.95
2023-05-22T09:48:09.677Z,4.90
2023-05-22T09:51:12.067Z,5.40
2023-05-22T09:54:14.280Z,4.70
2023-05-22T09:57:18.700Z,4.27
2023-05-22T10:00:20.562Z,4.80
2023-05-22T10:03:23.631Z,4.83
2023-05-22T10:06:27.013Z,4.87
2023-05-22T10:09:34.196Z,4.77
2023-05-22T10:12:40.497Z,4.83
2023-05-22T10:15:42.606Z,4.47
2023-05-22T10:18:49.147Z,5.17
2023-05-22T10:21:51.281Z,4.67
2023-05-22T10:24:54.467Z,4.90
2023-05-22T10:27:57.049Z,5.10
2023-05-22T10:31:02.838Z,5.10
2023-05-22T10:34:50.787Z,4.50
2023-05-22T10:37:53.902Z,4.60
2023-05-22T10:40:55.892Z,4.63
2023-05-22T10:43:58.327Z,3.93
2023-05-22T10:47:10.307Z,4.30
2023-05-22T10:50:12.302Z,4.20
2023-05-22T10:53:23.622Z,3.93
2023-05-22T10:56:32.494Z,3.97
2023-05-22T10:59:34.735Z,4.57
2023-05-22T11:02:43.857Z,4.50
2023-05-22T11:05:52.890Z,5.13
2023-05-22T11:08:56.380Z,3.73
2023-05-22T11:12:13.505Z,5.30
2023-05-22T11:15:16.011Z,4.10
2023-05-22T11:18:17.780Z,4.03
2023-05-22T11:21:19.630Z,4.10
2023-05-22T11:24:21.415Z,4.47
2023-05-22T11:27:23.217Z,4.70
2023-05-22T11:30:25.652Z,4.43
2023-05-22T11:33:27.420Z,3.80
2023-05-22T11:36:29.725Z,4.10
2023-05-22T11:39:32.690Z,4.27
2023-05-22T11:42:35.015Z,3.60
2023-05-22T11:45:37.633Z,4.17
2023-05-22T11:48:42.306Z,3.60
2023-05-22T11:51:44.649Z,4.37
2023-05-22T11:54:47.316Z,3.57
2023-05-22T11:57:49.138Z,3.60
2023-05-22T12:00:50.962Z,3.97
2023-05-22T12:03:52.703Z,4.20
2023-05-22T12:06:54.995Z,4.43
2023-05-22T12:09:56.825Z,4.50
2023-05-22T12:13:01.117Z,4.10
2023-05-22T12:16:02.989Z,4.00
2023-05-22T12:19:08.535Z,4.37
2023-05-22T12:22:10.615Z,4.10
2023-05-22T12:25:20.133Z,3.80
2023-05-22T12:28:21.994Z,3.63
2023-05-22T12:31:23.900Z,4.00
2023-05-22T12:34:26.700Z,9.40
2023-05-22T12:37:28.680Z,4.43
2023-05-22T12:40:30.444Z,4.37
2023-05-22T12:43:32.201Z,4.37
2023-05-22T12:46:34.379Z,4.03
2023-05-22T12:49:36.161Z,4.10
2023-05-22T12:52:37.941Z,4.17
2023-05-22T12:55:39.940Z,4.63
2023-05-22T12:58:41.735Z,4.83
2023-05-22T13:01:43.836Z,4.87
2023-05-22T13:04:45.765Z,4.97
2023-05-22T13:07:47.557Z,4.70
2023-05-22T13:10:49.184Z,5.00
2023-05-22T13:13:51.093Z,4.77
2023-05-22T13:16:52.947Z,4.60
2023-05-22T13:19:55.143Z,5.27
2023-05-22T13:22:56.813Z,4.47
2023-05-22T13:25:58.635Z,4.50
2023-05-22T13:29:00.560Z,5.00
2023-05-22T13:32:02.273Z,4.93
2023-05-22T13:35:04.187Z,5.17
2023-05-22T13:38:05.986Z,4.53
2023-05-22T13:41:07.709Z,5.00
2023-05-22T13:44:09.449Z,5.00
2023-05-22T13:47:11.388Z,5.10
2023-05-22T13:50:13.241Z,4.30
2023-05-22T13:53:15.009Z,4.90
2023-05-22T13:56:16.830Z,4.77
2023-05-22T13:59:18.630Z,5.00
2023-05-22T14:02:20.923Z,5.30
2023-05-22T14:05:23.611Z,5.87
2023-05-22T14:08:25.529Z,5.53
2023-05-22T14:11:27.442Z,5.57
2023-05-22T14:14:29.151Z,4.70
2023-05-22T14:17:31.107Z,4.63
2023-05-22T14:20:32.826Z,4.17
2023-05-22T14:23:34.571Z,4.33
2023-05-22T14:26:36.293Z,4.90
2023-05-22T14:29:38.205Z,4.57
2023-05-22T14:32:40.125Z,4.60
2023-05-22T14:35:42.096Z,4.17
2023-05-22T14:38:44.060Z,4.90
2023-05-22T14:41:45.901Z,4.57
2023-05-22T14:44:47.664Z,5.13
2023-05-22T14:47:49.360Z,5.77
2023-05-22T14:50:51.151Z,5.63
2023-05-22T14:53:53.023Z,7.03
2023-05-22T14:56:54.927Z,7.60
2023-05-22T14:59:56.636Z,7.27
2023-05-22T15:02:58.515Z,6.70
2023-05-22T15:06:00.410Z,6.47
2023-05-22T15:09:02.133Z,6.53
2023-05-22T15:12:03.902Z,6.80
2023-05-22T15:15:05.867Z,5.63
2023-05-22T15:18:07.850Z,5.70
2023-05-22T15:21:09.550Z,7.20
2023-05-22T15:24:11.918Z,6.50
2023-05-22T15:27:13.661Z,6.47
2023-05-22T15:30:17.343Z,6.20
2023-05-22T15:33:33.482Z,6.50
2023-05-22T15:36:36.881Z,6.50
2023-05-22T15:39:40.240Z,6.40
2023-05-22T15:42:41.945Z,5.57
2023-05-22T15:45:52.740Z,5.97
2023-05-22T15:48:54.455Z,5.10
2023-05-22T15:51:56.332Z,4.50
2023-05-22T15:55:01.205Z,5.57
2023-05-22T15:58:03.586Z,5.30
2023-05-22T16:01:05.698Z,5.77
2023-05-22T16:04:07.488Z,5.50
2023-05-22T16:07:09.755Z,5.23
2023-05-22T16:10:11.833Z,5.70
2023-05-22T16:13:17.675Z,5.77
2023-05-22T16:16:20.067Z,5.43
2023-05-22T16:19:22.077Z,6.20
2023-05-22T16:22:30.366Z,5.77
2023-05-22T16:25:41.573Z,6.57
2023-05-22T16:28:43.716Z,7.03
2023-05-22T16:31:45.720Z,7.43
2023-05-22T16:34:48.697Z,6.83
2023-05-22T16:37:53.646Z,7.30
2023-05-22T16:40:55.410Z,6.43
2023-05-22T16:44:05.023Z,7.33
2023-05-22T16:47:06.846Z,7.80
2023-05-22T16:50:09.225Z,7.37
2023-05-22T16:53:10.980Z,7.23
2023-05-22T16:56:14.082Z,9.67
2023-05-22T16:59:15.872Z,7.33
2023-05-22T17:02:17.790Z,7.10
2023-05-22T17:05:22.423Z,8.00
2023-05-22T17:08:24.313Z,7.60
2023-05-22T17:11:26.458Z,7.70
2023-05-22T17:14:28.207Z,8.67
2023-05-22T17:17:30.076Z,9.13
2023-05-22T17:20:33.078Z,8.30
2023-05-22T17:23:37.145Z,8.00
2023-05-22T17:26:39.267Z,7.50
2023-05-22T17:29:42.304Z,7.83
2023-05-22T17:32:45.362Z,7.73
2023-05-22T17:35:47.511Z,8.20
2023-05-22T17:38:49.374Z,11.67
2023-05-22T17:41:51.418Z,8.80
2023-05-22T17:44:56.715Z,10.90
2023-05-22T17:47:58.612Z,9.93
2023-05-22T17:51:00.599Z,10.33
2023-05-22T17:54:02.464Z,10.00
2023-05-22T17:57:04.357Z,9.70
2023-05-22T18:00:09.633Z,9.53
2023-05-22T18:03:15.071Z,9.63
2023-05-22T18:06:16.884Z,19.93
2023-05-22T18:09:18.892Z,13.20
2023-05-22T18:15:26.453Z,21.67
2023-05-22T18:18:28.487Z,12.37
2023-05-22T18:21:30.195Z,17.27
2023-05-22T18:24:32.775Z,12.07
2023-05-22T18:27:35.267Z,11.30
2023-05-22T18:30:38.064Z,10.67
2023-05-22T18:33:42.183Z,10.53
2023-05-22T18:36:43.904Z,22.87
2023-05-22T18:39:48.774Z,19.13
2023-05-22T18:42:50.738Z,13.27
2023-05-22T18:45:54.977Z,12.47
2023-05-22T18:48:56.701Z,21.57
2023-05-22T18:51:58.376Z,16.10
2023-05-22T18:55:02.709Z,15.87
2023-05-22T18:58:04.394Z,15.93
2023-05-22T19:01:09.068Z,26.50
2023-05-22T19:04:13.355Z,17.33
2023-05-22T19:07:18.233Z,14.97
2023-05-22T19:10:20.055Z,14.40
2023-05-22T19:13:21.690Z,11.60
2023-05-22T19:16:23.545Z,12.50
2023-05-22T19:19:25.369Z,13.63
2023-05-22T19:22:27.877Z,13.47
2023-05-22T19:25:29.694Z,13.90
2023-05-22T19:28:36.600Z,19.23
2023-05-22T19:31:38.439Z,21.93
2023-05-22T19:34:40.466Z,18.47
2023-05-22T19:37:42.189Z,18.90
2023-05-22T19:40:43.958Z,31.83
2023-05-22T19:43:45.905Z,61.13
2023-05-22T19:46:48.064Z,31.43
2023-05-22T19:49:49.950Z,22.60
2023-05-22T19:52:51.604Z,23.30
2023-05-22T19:55:53.364Z,31.27
2023-05-22T19:58:55.015Z,14.60
2023-05-22T20:01:56.689Z,17.23
2023-05-22T20:04:58.329Z,11.50
2023-05-22T20:08:00.115Z,17.10
2023-05-22T20:11:01.866Z,15.97
2023-05-22T20:14:03.801Z,11.43
2023-05-22T20:17:05.804Z,10.93
2023-05-22T20:20:09.665Z,10.67
2023-05-22T20:23:11.339Z,10.73
2023-05-22T20:26:15.283Z,9.60
2023-05-22T20:29:17.523Z,10.97
2023-05-22T20:32:19.201Z,9.43
2023-05-22T20:35:22.279Z,11.90
2023-05-22T20:38:24.043Z,11.10
2023-05-22T20:41:28.137Z,12.50
2023-05-22T20:44:31.853Z,10.90
2023-05-22T20:47:37.745Z,10.40
2023-05-22T20:50:40.068Z,9.90
2023-05-22T20:53:42.195Z,9.80
2023-05-22T20:56:44.036Z,9.87
2023-05-22T20:59:46.061Z,10.27
2023-05-22T21:02:47.825Z,10.17
2023-05-22T21:05:49.563Z,9.27
2023-05-22T21:08:53.852Z,10.70
2023-05-22T21:11:58.309Z,9.77
2023-05-22T21:15:00.055Z,10.10
2023-05-22T21:18:01.742Z,9.93
2023-05-22T21:21:03.550Z,11.03
2023-05-22T21:24:06.141Z,10.57
2023-05-22T21:27:07.852Z,9.87
2023-05-22T21:30:12.228Z,9.67
2023-05-22T21:33:13.987Z,9.40
2023-05-22T21:36:15.803Z,9.83
2023-05-22T21:39:17.521Z,9.53
2023-05-22T21:42:19.731Z,9.63
2023-05-22T21:45:21.712Z,10.13
2023-05-22T21:48:23.501Z,9.87
2023-05-22T21:51:25.289Z,9.20
2023-05-22T21:54:26.957Z,9.50
2023-05-22T21:57:28.847Z,9.27
2023-05-22T22:00:30.579Z,8.87
2023-05-22T22:03:32.386Z,9.07
2023-05-22T22:06:34.116Z,9.60
2023-05-22T22:09:35.715Z,8.93
2023-05-22T22:12:37.430Z,9.30
2023-05-22T22:15:39.160Z,9.93
2023-05-22T22:18:40.980Z,9.37
2023-05-22T22:21:42.619Z,9.47
2023-05-22T22:24:45.415Z,10.13
2023-05-22T22:27:48.914Z,9.53
2023-05-22T22:30:50.667Z,9.37
2023-05-22T22:33:52.327Z,9.93
2023-05-22T22:36:54.114Z,9.03
2023-05-22T22:39:55.759Z,9.37
2023-05-22T22:42:57.429Z,9.83
2023-05-22T22:45:59.203Z,9.30
2023-05-22T22:49:01.878Z,9.17
2023-05-22T22:52:04.172Z,8.93
2023-05-22T22:55:06.754Z,9.33
2023-05-22T22:58:09.586Z,9.53
2023-05-22T23:01:11.328Z,9.03
2023-05-22T23:04:13.594Z,9.43
2023-05-22T23:07:15.390Z,8.97
2023-05-22T23:10:17.145Z,8.83
2023-05-22T23:13:18.938Z,9.20
2023-05-22T23:16:21.962Z,8.70
2023-05-22T23:19:24.184Z,9.10
2023-05-22T23:22:25.977Z,9.13
2023-05-22T23:25:27.618Z,8.67
2023-05-22T23:28:29.229Z,9.30
2023-05-22T23:31:31.273Z,8.90
2023-05-22T23:34:33.158Z,8.77
2023-05-22T23:37:34.933Z,8.23
2023-05-22T23:40:36.661Z,8.83
2023-05-22T23:43:38.367Z,8.67
2023-05-22T23:46:40.074Z,8.17
2023-05-22T23:49:41.699Z,8.13
2023-05-22T23:52:43.399Z,7.60
2023-05-22T23:55:45.127Z,8.10
2023-05-22T23:58:46.797Z,8.40
